Flight Track Log - Related Links

Times and Time Zones

All times are in EDT time to prevent confusion due to time zone crossing. See the N729JB flight status page for this flight to view local times or setup timezone preferences in your user account.

Time Position Orientation Groundspeed Altitude Reporting Facility
EDT Latitude Longitude Course Direction KTS MPH feet Rate Location/Type
Fri 09:08:01 PM 33.8350 -118.1710 313° West 156 180 1,600  Level FlightAware ADS-B
Fri 09:08:16 PM 33.8420 -118.1850 301° West 183 211 2,000 1,500 Climbing FlightAware ADS-B
Fri 09:08:41 PM 33.8470 -118.2100 284° West 215 247 2,600 2,400 Climbing FlightAware ADS-B
Fri 09:09:11 PM 33.8540 -118.2450 284° West 220 253 4,200 3,164 Climbing FlightAware ADS-B
Fri 09:09:36 PM 33.8590 -118.2750 281° West 227 261 5,500 2,400 Climbing FlightAware ADS-B
Fri 09:10:06 PM 33.8550 -118.3150 263° West 227 261 6,400 2,400 Climbing FlightAware ADS-B
Fri 09:10:36 PM 33.8510 -118.3540 263° West 239 275 7,900 2,727 Climbing FlightAware ADS-B
Fri 09:11:01 PM 33.8470 -118.3870 262° West 259 298 8,900 2,073 Climbing FlightAware ADS-B
Fri 09:11:31 PM 33.8410 -118.4330 261° West 295 339 9,800 2,486 Climbing FlightAware ADS-B
Fri 09:12:11 PM 33.8330 -118.5000 262° West 311 358 11,800 2,400 Climbing FlightAware ADS-B
Fri 09:12:56 PM 33.8220 -118.5810 261° West 345 397 13,200 1,875 Climbing FlightAware ADS-B
Fri 09:13:31 PM 33.8140 -118.6480 262° West 368 423 14,300 2,486 Climbing FlightAware ADS-B
Fri 09:14:06 PM 33.8300 -118.7150 286° West 358 412 16,100 2,880 Climbing FlightAware ADS-B
Fri 09:14:46 PM 33.8720 -118.7780 309° West 359 413 17,900 2,625 Climbing FlightAware ADS-B
Fri 09:15:26 PM 33.9130 -118.8410 308° West 364 419 19,600 2,400 Climbing FlightAware ADS-B
Fri 09:16:11 PM 33.9590 -118.9120 308° West 371 427 21,300 1,976 Climbing FlightAware ADS-B
Fri 09:16:51 PM 34.0010 -118.9770 308° West 381 438 22,400 1,725 Climbing FlightAware ADS-B
Fri 09:17:31 PM 34.0450 -119.0440 308° West 389 448 23,600 1,835 Climbing FlightAware ADS-B
Fri 09:18:16 PM 34.0970 -119.1250 308° West 395 455 25,000 1,765 Climbing FlightAware ADS-B
Fri 09:18:56 PM 34.1420 -119.1950 308° West 399 459 26,100 1,624 Climbing FlightAware ADS-B
Fri 09:19:41 PM 34.1940 -119.2760 308° West 405 466 27,300 1,412 Climbing FlightAware ADS-B
Fri 09:20:21 PM 34.2390 -119.3460 308° West 412 474 28,100 1,350 Climbing FlightAware ADS-B
Fri 09:21:01 PM 34.2840 -119.4170 308° West 416 479 29,100 1,271 Climbing FlightAware ADS-B
Fri 09:21:46 PM 34.3400 -119.5030 308° West 425 489 29,900 1,129 Climbing FlightAware ADS-B
Fri 09:22:26 PM 34.3880 -119.5800 307° West 429 494 30,700 947 Climbing FlightAware ADS-B
Fri 09:23:21 PM 34.4520 -119.6810 308° West 429 494 31,400 1,560 Climbing FlightAware ADS-B
Fri 09:24:06 PM 34.5090 -119.7670 309° West 418 481 33,300 1,553 Climbing FlightAware ADS-B
Fri 09:24:46 PM 34.5570 -119.8290 313° West 414 476 33,600 1,624 Climbing FlightAware ADS-B
Fri 09:25:31 PM 34.6260 -119.8980 321° Northwest 398 458 35,600 1,694 Climbing FlightAware ADS-B
Fri 09:26:11 PM 34.6770 -119.9540 318° Northwest 394 453 36,000 300 Climbing FlightAware ADS-B
Fri 09:26:51 PM 34.7350 -120.0170 318° Northwest 395 455 36,000  Level FlightAware ADS-B
Fri 09:27:41 PM 34.8010 -120.0890 318° Northwest 396 456 36,000  Level FlightAware ADS-B
Fri 09:28:31 PM 34.8720 -120.1670 318° Northwest 399 459 36,000  Level FlightAware ADS-B
Fri 09:29:21 PM 34.9340 -120.2370 317° Northwest 398 458 36,000  Level FlightAware ADS-B
Fri 09:30:11 PM 34.9910 -120.3020 317° Northwest 398 458 36,000  Level FlightAware ADS-B
Fri 09:30:51 PM 35.0370 -120.3540 317° Northwest 398 458 36,000  Level FlightAware ADS-B
Fri 09:31:31 PM 35.1160 -120.4370 319° Northwest 398 458 36,000  Level FlightAware ADS-B
Fri 09:32:16 PM 35.1770 -120.5050 318° Northwest 397 457 36,000  Level FlightAware ADS-B
Fri 09:32:56 PM 35.2330 -120.5680 317° Northwest 399 459 36,000  Level FlightAware ADS-B
Fri 09:33:36 PM 35.2860 -120.6270 318° Northwest 399 459 36,000  Level FlightAware ADS-B
Fri 09:34:31 PM 35.3580 -120.7080 317° Northwest 400 460 36,000  Level FlightAware ADS-B
Fri 09:35:16 PM 35.4210 -120.7780 318° Northwest 401 461 36,000  Level FlightAware ADS-B
Fri 09:36:01 PM 35.4880 -120.8450 321° Northwest 399 459 36,000  Level FlightAware ADS-B
Fri 09:36:41 PM 35.5470 -120.8950 325° Northwest 399 459 36,000  Level FlightAware ADS-B
Fri 09:37:21 PM 35.6090 -120.9480 325° Northwest 400 460 36,000  Level FlightAware ADS-B
Fri 09:38:06 PM 35.6780 -121.0090 324° Northwest 401 461 36,000  Level FlightAware ADS-B
Fri 09:38:46 PM 35.7350 -121.0600 324° Northwest 401 461 36,000  Level FlightAware ADS-B
Fri 09:39:31 PM 35.8040 -121.1200 325° Northwest 399 459 36,000  Level FlightAware ADS-B
Fri 09:40:11 PM 35.8610 -121.1700 325° Northwest 398 458 36,000  Level FlightAware ADS-B
Fri 09:40:51 PM 35.9240 -121.2260 324° Northwest 381 438 36,000  Level FlightAware ADS-B
Fri 09:41:36 PM 35.9860 -121.2810 324° Northwest 381 438 36,000 -847 Level FlightAware ADS-B
Fri 09:42:16 PM 36.0460 -121.3350 324° Northwest 387 445 34,800 -1,765 Descending FlightAware ADS-B
Fri 09:43:01 PM 36.1090 -121.3910 324° Northwest 375 432 33,500 -1,765 Descending FlightAware ADS-B
Fri 09:43:41 PM 36.1660 -121.4420 324° Northwest 366 421 32,300 -1,800 Descending FlightAware ADS-B
Fri 09:44:21 PM 36.2180 -121.4880 324° Northwest 359 413 31,100 -1,976 Descending FlightAware ADS-B
Fri 09:45:06 PM 36.2790 -121.5430 324° Northwest 356 410 29,500 -2,188 Descending FlightAware ADS-B
Fri 09:45:46 PM 36.3310 -121.5900 324° Northwest 343 395 28,000 -2,541 Descending FlightAware ADS-B
Fri 09:46:31 PM 36.3900 -121.6430 324° Northwest 336 387 25,900 -2,753 Descending FlightAware ADS-B
Fri 09:47:11 PM 36.4390 -121.6870 324° Northwest 334 384 24,100 -2,625 Descending FlightAware ADS-B
Fri 09:47:51 PM 36.4880 -121.7320 324° Northwest 337 388 22,400 -2,118 Descending FlightAware ADS-B
Fri 09:48:36 PM 36.5430 -121.7810 324° Northwest 322 371 21,100 -1,624 Descending FlightAware ADS-B
Fri 09:49:16 PM 36.5940 -121.8270 324° Northwest 311 358 20,100 -825 Descending FlightAware ADS-B
Fri 09:49:56 PM 36.6400 -121.8690 324° Northwest 318 366 20,000 -565 Descending FlightAware ADS-B
Fri 09:50:41 PM 36.6930 -121.9160 325° Northwest 307 353 19,300 -1,765 Descending FlightAware ADS-B
Fri 09:51:21 PM 36.7380 -121.9570 324° Northwest 304 350 17,500 -2,700 Descending FlightAware ADS-B
Fri 09:52:01 PM 36.7920 -121.9770 343° North 307 353 15,700 -2,188 Descending FlightAware ADS-B
Fri 09:52:46 PM 36.8550 -121.9930 349° North 305 351 14,400 -1,694 Descending FlightAware ADS-B
Fri 09:53:26 PM 36.9110 -122.0080 348° North 300 345 13,300 -1,624 Descending FlightAware ADS-B
Fri 09:54:11 PM 36.9710 -122.0240 348° North 297 342 12,100 -1,482 Descending FlightAware ADS-B
Fri 09:54:51 PM 37.0230 -122.0370 349° North 284 327 11,200 -1,412 Descending FlightAware ADS-B
Fri 09:55:36 PM 37.0800 -122.0530 347° North 277 319 10,100 -847 Descending FlightAware ADS-B
Fri 09:56:16 PM 37.1260 -122.0640 349° North 241 277 10,000 -75 Descending FlightAware ADS-B
Fri 09:56:56 PM 37.1700 -122.0760 348° North 233 268 10,000  Level FlightAware ADS-B
Fri 09:57:26 PM 37.1980 -122.0930 334° Northwest 238 274 10,000  Level FlightAware ADS-B
Fri 09:57:41 PM 37.2060 -122.1130 297° West 238 274 10,000 -686 Level FlightAware ADS-B
Fri 09:58:01 PM 37.2140 -122.1370 293° West 237 273 9,600 -1,200 Descending FlightAware ADS-B
Fri 09:58:36 PM 37.2290 -122.1830 292° West 237 273 8,900 -1,108 Descending FlightAware ADS-B
Fri 09:59:06 PM 37.2420 -122.2210 293° West 233 268 8,400 -1,091 Descending FlightAware ADS-B
Fri 09:59:31 PM 37.2530 -122.2510 295° West 229 264 7,900 -1,333 Descending FlightAware ADS-B
Fri 09:59:51 PM 37.2690 -122.2660 323° Northwest 231 266 7,400 -1,067 Descending FlightAware ADS-B
Fri 10:00:16 PM 37.2930 -122.2810 334° Northwest 226 260 7,100 -436 Descending FlightAware ADS-B
Fri 10:00:46 PM 37.3220 -122.2980 335° Northwest 233 268 7,000 -218 Descending FlightAware ADS-B
Fri 10:01:11 PM 37.3470 -122.3100 339° North 230 265 6,900 -764 Descending FlightAware ADS-B
Fri 10:01:41 PM 37.3730 -122.2940 26° Northeast 236 272 6,300 -873 Descending FlightAware ADS-B
Fri 10:02:06 PM 37.3840 -122.2620 67° East 238 274 6,100 -450 Descending FlightAware ADS-B
Fri 10:02:21 PM 37.3920 -122.2430 62° Northeast 240 276 6,000 -133 Descending FlightAware ADS-B
Fri 10:02:51 PM 37.4100 -122.2080 57° Northeast 236 272 6,000 109 Level FlightAware ADS-B
Fri 10:03:16 PM 37.4230 -122.1860 53° Northeast 210 242 6,100 -545 Climbing FlightAware ADS-B
Fri 10:03:46 PM 37.4400 -122.1540 56° Northeast 201 231 5,500 -1,200 Descending FlightAware ADS-B
Fri 10:04:01 PM 37.4500 -122.1410 46° Northeast 203 234 5,200 -1,050 Descending FlightAware ADS-B
Fri 10:04:26 PM 37.4710 -122.1290 24° Northeast 195 224 4,800 -982 Descending FlightAware ADS-B
Fri 10:04:56 PM 37.4940 -122.1190 19° North 193 222 4,300 -1,100 Descending FlightAware ADS-B
Fri 10:05:26 PM 37.5150 -122.1400 322° Northwest 187 215 3,700 -982 Descending FlightAware ADS-B
Fri 10:05:51 PM 37.5280 -122.1590 311° West 174 200 3,400 -600 Descending FlightAware ADS-B
Fri 10:06:06 PM 37.5350 -122.1710 306° West 162 186 3,300 -667 Descending FlightAware ADS-B
Fri 10:06:36 PM 37.5450 -122.1950 298° West 158 182 2,900 -500 Descending FlightAware ADS-B
Fri 10:07:06 PM 37.5550 -122.2180 299° West 158 182 2,800 -818 Descending FlightAware ADS-B
Fri 10:07:42 PM 37.5667 -122.2500 299° West 153 176 2,000 -1,031 Descending Northern Cal TRACON
Fri 10:08:10 PM 37.5714 -122.2597 302° West 161 185 1,700 -742 Descending Oakland Center
Fri 10:09:11 PM 37.5917 -122.3094 297° West 146 168 900 -689 Descending Oakland Center
Fri 10:10:12 PM 37.6072 -122.3456 299° West 131 151 300 -344 Descending Oakland Center
Fri 10:11:13 PM 37.6228 -122.3808 299° West 129 148 200 -98 Descending Oakland Center
Fri 10:13:00 PM 37.6167 -122.3667 322° Northwest  Level FlightAware Approximate

Login

Don't have an account? Register now (free) for customized features, flight alerts, and more!